createdAt,value
2022-09-09T00:04:52.649Z,19.23
2022-09-09T00:10:22.069Z,11.70
2022-09-09T00:15:47.338Z,14.10
2022-09-09T00:21:01.964Z,7.70
2022-09-09T00:26:48.768Z,18.35
2022-09-09T00:37:44.870Z,26.98
2022-09-09T00:43:03.396Z,28.17
2022-09-09T01:00:06.836Z,16.55
2022-09-09T01:05:44.011Z,20.90
2022-09-09T01:11:11.710Z,34.30
2022-09-09T01:16:16.482Z,21.55
2022-09-09T01:21:55.435Z,13.18
2022-09-09T01:27:11.183Z,21.93
2022-09-09T01:32:43.026Z,29.23
2022-09-09T01:37:49.327Z,13.77
2022-09-09T01:43:01.512Z,22.58
2022-09-09T01:48:11.638Z,20.25
2022-09-09T01:53:36.972Z,14.18
2022-09-09T01:59:10.133Z,24.35
2022-09-09T02:04:33.886Z,22.58
2022-09-09T02:09:41.160Z,16.67
2022-09-09T02:15:12.365Z,18.25
2022-09-09T02:20:29.078Z,22.77
2022-09-09T02:25:37.937Z,19.80
2022-09-09T02:31:06.979Z,20.48
2022-09-09T02:36:29.454Z,16.10
2022-09-09T02:41:37.426Z,37.33
2022-09-09T02:47:15.247Z,21.02
2022-09-09T02:58:11.514Z,17.42
2022-09-09T03:03:24.428Z,27.13
2022-09-09T03:08:35.685Z,30.27
2022-09-09T03:13:41.216Z,21.90
2022-09-09T03:19:03.182Z,15.10
2022-09-09T03:24:37.159Z,10.90
2022-09-09T03:35:06.326Z,15.20
2022-09-09T03:46:40.328Z,17.52
2022-09-09T03:51:50.436Z,15.02
2022-09-09T03:57:02.498Z,27.10
2022-09-09T04:02:13.491Z,16.58
2022-09-09T04:07:20.975Z,16.15
2022-09-09T04:12:55.092Z,12.23
2022-09-09T04:24:14.736Z,18.27
2022-09-09T04:41:39.826Z,15.93
2022-09-09T05:04:43.335Z,7.95
2022-09-09T05:09:53.251Z,17.05
2022-09-09T05:15:23.436Z,22.03
2022-09-09T05:20:34.413Z,15.50
2022-09-09T05:25:50.246Z,21.63
2022-09-09T05:31:04.235Z,21.92
2022-09-09T05:36:17.059Z,11.65
2022-09-09T05:41:22.272Z,17.67
2022-09-09T05:46:46.961Z,15.23
2022-09-09T05:57:42.878Z,19.50
2022-09-09T06:08:25.057Z,29.92
2022-09-09T06:13:40.931Z,25.58
2022-09-09T06:19:15.705Z,20.58
2022-09-09T06:24:25.407Z,18.77
2022-09-09T06:29:34.224Z,26.50
2022-09-09T06:35:09.023Z,21.05
2022-09-09T06:40:22.522Z,30.67
2022-09-09T06:45:36.022Z,23.30
2022-09-09T06:50:50.035Z,23.83
2022-09-09T07:08:21.703Z,17.38
2022-09-09T07:19:34.603Z,28.08
2022-09-09T07:24:56.192Z,21.08
2022-09-09T07:30:35.846Z,18.10
2022-09-09T08:12:01.964Z,20.40
2022-09-09T08:17:47.556Z,21.73
2022-09-09T08:42:59.946Z,23.75
2022-09-09T08:49:03.532Z,23.35
2022-09-09T09:06:32.459Z,17.55
2022-09-09T09:12:17.980Z,11.27
2022-09-09T09:23:26.744Z,13.57
2022-09-09T09:28:37.686Z,11.38
2022-09-09T09:34:00.337Z,13.73
2022-09-09T09:44:43.320Z,5.00
2022-09-09T09:50:10.001Z,12.80
2022-09-09T09:55:23.809Z,12.48
2022-09-09T10:00:26.656Z,10.32
2022-09-09T10:05:37.775Z,19.92
2022-09-09T10:11:36.070Z,7.00
2022-09-09T10:29:49.587Z,9.63
2022-09-09T10:40:54.948Z,9.25
2022-09-09T10:46:11.445Z,8.07
2022-09-09T10:51:32.664Z,13.50
2022-09-09T10:57:45.206Z,11.00
2022-09-09T11:03:16.215Z,13.43
2022-09-09T11:13:45.102Z,11.57
2022-09-09T11:18:50.342Z,7.20
2022-09-09T11:24:34.382Z,3.90
2022-09-09T11:30:01.935Z,4.85
2022-09-09T11:35:52.529Z,9.73
2022-09-09T11:41:06.117Z,5.43
2022-09-09T11:46:19.509Z,4.55
2022-09-09T11:51:37.551Z,5.95
2022-09-09T11:56:46.903Z,3.92
2022-09-09T12:02:23.995Z,6.97
2022-09-09T12:07:46.255Z,2.33
2022-09-09T12:12:48.425Z,1.45
2022-09-09T12:18:00.160Z,1.88
2022-09-09T12:23:08.667Z,3.78
2022-09-09T12:28:22.594Z,4.65
2022-09-09T12:33:26.125Z,3.20
2022-09-09T12:38:39.516Z,3.10
2022-09-09T12:43:48.610Z,7.20
2022-09-09T12:48:57.361Z,4.50
2022-09-09T12:54:03.098Z,4.93
2022-09-09T12:59:28.391Z,5.50
2022-09-09T13:04:32.400Z,9.00
2022-09-09T13:09:36.366Z,3.78
2022-09-09T13:14:40.424Z,7.75
2022-09-09T13:19:46.662Z,5.68
2022-09-09T13:25:10.070Z,6.38
2022-09-09T13:30:38.095Z,4.35
2022-09-09T13:36:10.025Z,1.58
2022-09-09T13:41:30.785Z,5.50
2022-09-09T13:46:57.282Z,6.70
2022-09-09T13:52:28.710Z,6.38
2022-09-09T13:57:55.434Z,4.32
2022-09-09T14:02:58.619Z,5.80
2022-09-09T14:08:09.223Z,8.60
2022-09-09T14:13:13.734Z,8.88
2022-09-09T14:18:15.801Z,10.52
2022-09-09T14:23:18.375Z,8.43
2022-09-09T14:28:45.143Z,8.02
2022-09-09T14:33:47.236Z,7.18
2022-09-09T14:38:51.927Z,12.10
2022-09-09T14:43:56.701Z,5.35
2022-09-09T14:49:01.870Z,7.18
2022-09-09T14:54:15.571Z,5.25
2022-09-09T14:59:21.211Z,5.65
2022-09-09T15:04:24.095Z,5.97
2022-09-09T15:09:32.180Z,5.03
2022-09-09T15:14:35.308Z,6.10
2022-09-09T15:19:39.225Z,12.07
2022-09-09T15:24:42.525Z,13.82
2022-09-09T15:29:46.161Z,6.50
2022-09-09T15:34:52.379Z,10.77
2022-09-09T15:39:55.529Z,5.50
2022-09-09T15:45:02.985Z,7.65
2022-09-09T15:50:06.853Z,7.53
2022-09-09T15:55:15.449Z,6.13
2022-09-09T16:00:24.081Z,10.52
2022-09-09T16:05:30.524Z,7.45
2022-09-09T16:10:37.517Z,6.72
2022-09-09T16:15:39.764Z,8.10
2022-09-09T16:21:01.986Z,13.50
2022-09-09T16:26:19.968Z,7.03
2022-09-09T16:31:33.860Z,9.02
2022-09-09T16:36:49.460Z,7.97
2022-09-09T16:41:57.714Z,10.55
2022-09-09T16:47:12.091Z,8.60
2022-09-09T16:52:42.111Z,5.75
2022-09-09T16:57:44.548Z,14.27
2022-09-09T17:03:01.311Z,11.93
2022-09-09T17:08:50.348Z,7.05
2022-09-09T17:14:03.782Z,6.50
2022-09-09T17:19:24.125Z,7.03
2022-09-09T17:24:59.160Z,9.80
2022-09-09T17:30:13.565Z,8.63
2022-09-09T17:35:55.907Z,8.55
2022-09-09T17:41:18.810Z,3.35
2022-09-09T17:46:35.961Z,9.40
2022-09-09T17:51:48.287Z,12.10
2022-09-09T17:57:09.401Z,11.00
2022-09-09T18:02:48.793Z,12.05
2022-09-09T18:08:26.941Z,1.98
2022-09-09T18:18:59.613Z,6.10
2022-09-09T18:24:11.173Z,11.20
2022-09-09T18:29:27.266Z,10.88
2022-09-09T18:34:39.550Z,8.40
2022-09-09T18:39:55.662Z,6.95
2022-09-09T18:45:04.116Z,10.45
2022-09-09T18:50:12.404Z,7.03
2022-09-09T18:55:19.889Z,12.73
2022-09-09T19:00:38.550Z,3.67
2022-09-09T19:05:46.067Z,3.85
2022-09-09T19:10:53.624Z,10.48
2022-09-09T19:21:29.651Z,6.03
2022-09-09T19:26:56.977Z,10.77
2022-09-09T19:32:49.660Z,5.75
2022-09-09T19:38:25.590Z,15.55
2022-09-09T19:43:45.477Z,6.22
2022-09-09T19:48:54.088Z,7.40
2022-09-09T19:54:19.477Z,8.40
2022-09-09T19:59:54.494Z,3.40
2022-09-09T20:11:10.284Z,6.95
2022-09-09T20:16:52.062Z,9.13
2022-09-09T20:22:38.100Z,1.88
2022-09-09T20:27:53.256Z,3.75
2022-09-09T20:33:29.460Z,3.28
2022-09-09T20:39:23.105Z,2.78
2022-09-09T20:50:16.601Z,3.15
2022-09-09T20:56:02.965Z,4.05
2022-09-09T21:07:05.725Z,3.05
2022-09-09T21:12:13.337Z,7.93
2022-09-09T21:17:27.618Z,6.97
2022-09-09T21:22:51.918Z,12.93
2022-09-09T21:28:13.167Z,2.65
2022-09-09T21:33:47.800Z,2.70
2022-09-09T21:44:39.420Z,5.30
2022-09-09T21:49:41.812Z,2.55
2022-09-09T21:54:48.301Z,6.32
2022-09-09T22:00:00.883Z,1.70
2022-09-09T22:05:33.400Z,5.25
2022-09-09T22:10:54.656Z,1.85
2022-09-09T22:32:44.059Z,6.82
2022-09-09T22:37:53.206Z,2.10
2022-09-09T22:42:57.665Z,3.05
2022-09-09T23:10:45.346Z,5.53
2022-09-09T23:16:58.160Z,6.95
2022-09-09T23:28:32.928Z,3.35
2022-09-09T23:33:55.025Z,3.72
2022-09-09T23:44:57.955Z,7.13
2022-09-09T23:50:13.835Z,8.23
